Flight Track Log - Related Links

Times and Time Zones

All times are in EDT time to prevent confusion due to time zone crossing. See the SKW5609 flight status page for this flight to view local times or setup timezone preferences in your user account.


Time Position Orientation Groundspeed Altitude Reporting Facility
EDT Latitude Longitude Course Direction KTS MPH feet Rate Location/Type
Sat 10:32:27 PM 37.6333 -122.4167 205° Southwest 146 168 2,200  Level Northern Cal TRACON
Sat 10:33:33 PM 37.6667 -122.4833 302° West 180 207 3,500 1,102 Climbing Northern Cal TRACON
Sat 10:34:05 PM 37.6569 -122.5036 239° Southwest 188 216 4,000 1,355 Climbing Oakland Center
Sat 10:35:06 PM 37.5978 -122.4958 174° South 214 246 5,600 1,426 Climbing Oakland Center
Sat 10:36:07 PM 37.5411 -122.4933 178° South 209 241 6,900 689 Climbing Oakland Center
Sat 10:37:00 PM 37.3388 -122.5316 205° Southwest  Level FlightAware Approximate
Sat 10:37:08 PM 37.4778 -122.4892 177° South 220 253 7,000  Level Oakland Center
Sat 10:38:09 PM 37.4131 -122.4814 175° South 230 265 7,000  Level Oakland Center
Sat 10:39:10 PM 37.3503 -122.4739 175° South 230 265 7,000  Level Oakland Center
Sat 10:40:11 PM 37.2883 -122.4672 175° South 228 262 7,000  Level Oakland Center
Sat 10:41:12 PM 37.2236 -122.4589 174° South 228 262 7,000  Level Oakland Center
Sat 10:42:12 PM 37.1658 -122.4342 161° South 231 266 7,000 -50 Level Oakland Center
Sat 10:43:13 PM 37.1028 -122.3778 144° Southeast 231 266 6,900 -49 Descending Oakland Center
Sat 10:44:14 PM 37.0506 -122.3314 145° Southeast 231 266 6,900  Level Oakland Center
Sat 10:45:15 PM 36.9981 -122.2839 144° Southeast 231 266 6,900  Level Oakland Center
Sat 10:46:16 PM 36.9433 -122.2392 147° Southeast 231 266 6,900 -148 Level Oakland Center
Sat 10:47:17 PM 36.8853 -122.2042 154° Southeast 232 267 6,600 -694 Descending Oakland Center
Sat 10:48:17 PM 36.8225 -122.1683 155° Southeast 243 280 5,500 -1,140 Descending Oakland Center
Sat 10:49:18 PM 36.7625 -122.1347 156° South 242 278 4,300 -1,180 Descending Oakland Center
Sat 10:50:19 PM 36.7064 -122.1003 154° Southeast 233 268 3,100 -984 Descending Oakland Center
Sat 10:51:20 PM 36.6542 -122.0608 149° Southeast 226 260 2,300 -393 Descending Oakland Center
Sat 10:52:21 PM 36.6361 -121.9964 109° East 207 238 2,300 -393 Level Oakland Center
Sat 10:53:22 PM 36.6147 -121.9369 114° Southeast 197 227 1,500 -492 Descending Oakland Center
Sat 10:54:23 PM 36.5956 -121.8792 112° Southeast 195 224 1,300 -197 Descending Oakland Center

Login

Don't have an account? Register now (free) for customized features, flight alerts, and more!